WMKK/KUL METAR and TAF weather

Enter ICAO airport designator
Station Type Date Time Source
WMKK METAR 2021/01/17 18:00 UTC NOAA

WMKK 171800Z VRB05KT 9999 FEW030 26/20 Q1010 NOSIG


Station Type Date Time Source
WMKK Decoded METAR 2021/01/17 18:00 UTC NOAA

Sepang/KL International Airport, Malaysia (WMKK) 02-44N 101-42E 22M
Jan 17, 2021 - 01:00 PM EST / 2021.01.17 1800 UTC
Wind: Variable at 6 MPH (5 KT):0
Visibility: greater than 7 mile(s):0
Sky conditions: mostly clear
Temperature: 78 F (26 C)
Dew Point: 68 F (20 C)
Relative Humidity: 69%
Pressure (altimeter): 29.83 in. Hg (1010 hPa)
ob: WMKK 171800Z VRB05KT 9999 FEW030 26/20 Q1010 NOSIG
cycle: 18

Station Type Date Time Source
WMKK TAF 2021/01/17 18:13 UTC NOAA

TAF WMKK 171600Z 1718/1900 07006KT 9999 FEW017CB PROB30
TEMPO 1808/1812 22007G18KT 4000 TSRA FEW017CB SCT020

Example: see airport list